page 5235 of 1009811 registered users

eBook PostsUsers

  1. 0airbus4tree registered @ 2013-01-04 07:35:47, last login @ 2013-01-04 07:35:47
  2. 0coke88tulip registered @ 2013-01-04 07:37:01, last login @ 2013-01-04 07:37:01
  3. 0park8hedge registered @ 2013-01-04 07:37:08, last login @ 2013-01-04 07:37:08
  4. 0buffetcredit75 registered @ 2013-01-04 07:38:33, last login @ 2013-01-04 07:38:33
  5. 0patriciarobles14 registered @ 2013-01-04 07:40:59, last login @ 2013-01-04 07:40:59
  6. 0forest56orchid registered @ 2013-01-04 07:42:35, last login @ 2013-01-04 07:42:35
  7. 0pint1cherry registered @ 2013-01-04 07:43:06, last login @ 2013-01-04 07:43:06
  8. 0airbus6root registered @ 2013-01-04 07:45:01, last login @ 2013-01-04 07:45:01
  9. 0frogpound1 registered @ 2013-01-04 07:45:13, last login @ 2013-01-04 07:45:13
  10. 0humor54yogurt registered @ 2013-01-04 07:48:34, last login @ 2013-01-04 07:48:34
  11. 0flightpump6 registered @ 2013-01-04 07:49:00, last login @ 2013-01-04 07:49:00
  12. 0work0gym registered @ 2013-01-04 07:52:13, last login @ 2013-01-04 07:52:13
  13. 0filmstreaming8 registered @ 2013-01-04 07:54:41, last login @ 2013-01-04 07:54:41
  14. 0band81active registered @ 2013-01-04 07:56:19, last login @ 2013-01-04 07:56:19
  15. 0pastevacuum5 registered @ 2013-01-04 07:56:36, last login @ 2013-01-04 07:56:36
  16. 0veilsteven61 registered @ 2013-01-04 07:56:41, last login @ 2013-01-04 07:56:41
  17. 0coursecycle0 registered @ 2013-01-04 07:57:42, last login @ 2013-01-04 07:57:42
  18. 0body16olive registered @ 2013-01-04 07:57:52, last login @ 2013-01-04 07:57:52
  19. 0silver0air registered @ 2013-01-04 07:57:57, last login @ 2013-01-04 07:57:57
  20. 0perch42banana registered @ 2013-01-04 07:57:59, last login @ 2013-01-04 07:57:59
  21. 0bedcobweb58 registered @ 2013-01-04 07:58:15, last login @ 2013-01-04 07:58:15
  22. 0budget44carrot registered @ 2013-01-04 07:58:52, last login @ 2013-01-04 07:58:52
  23. 0garage77coffee registered @ 2013-01-04 07:59:40, last login @ 2013-01-04 07:59:40
  24. 0health2food registered @ 2013-01-04 08:00:29, last login @ 2013-01-04 08:00:29
  25. 0frontangle00 registered @ 2013-01-04 08:01:34, last login @ 2013-01-04 08:01:34
  26. 0novel9hemp registered @ 2013-01-04 08:02:15, last login @ 2013-01-04 08:02:15
  27. 0searchpot81 registered @ 2013-01-04 08:02:53, last login @ 2013-01-04 08:02:53
  28. 0SleemoWox registered @ 2013-01-04 08:03:02, last login @ 2013-01-04 08:03:02
  29. 0egypt80comb registered @ 2013-01-04 08:03:31, last login @ 2013-01-04 08:03:31
  30. 0metal05index registered @ 2013-01-04 08:04:20, last login @ 2013-01-04 08:04:20
  31. 0locust22archer registered @ 2013-01-04 08:04:35, last login @ 2013-01-04 08:04:35
  32. 0deermetal8 registered @ 2013-01-04 08:04:48, last login @ 2013-01-04 08:04:48
  33. 0ttsalis registered @ 2013-01-04 08:05:16, last login @ 2013-01-04 08:05:16
  34. 0roberttile1 registered @ 2013-01-04 08:07:26, last login @ 2013-01-04 08:07:26
  35. 0pastordinner2 registered @ 2013-01-04 08:07:32, last login @ 2013-01-04 08:07:32
  36. 0bayturret73 registered @ 2013-01-04 08:08:14, last login @ 2013-01-04 08:08:14
  37. 0coughhose8 registered @ 2013-01-04 08:08:21, last login @ 2013-01-04 08:39:48
  38. 0shocksingle44 registered @ 2013-01-04 08:08:44, last login @ 2013-01-04 08:48:13
  39. 0raven4tenor registered @ 2013-01-04 08:09:10, last login @ 2013-01-04 08:09:10
  40. 0bottlepeony80 registered @ 2013-01-04 08:09:46, last login @ 2013-01-04 08:29:22
  41. 0wallarcher8 registered @ 2013-01-04 08:10:11, last login @ 2013-01-04 08:10:11
  42. 0cross0ship registered @ 2013-01-04 08:10:19, last login @ 2013-01-04 08:31:14
  43. 0hand7cream registered @ 2013-01-04 08:11:40, last login @ 2013-01-04 08:11:40
  44. 0tomato0mass registered @ 2013-01-04 08:12:54, last login @ 2013-01-04 08:12:54
  45. 0heat86kidney registered @ 2013-01-04 08:17:04, last login @ 2013-01-04 08:17:04
  46. 0agendadash2 registered @ 2013-01-04 08:17:41, last login @ 2013-01-04 08:17:41
  47. 0copper4jeans registered @ 2013-01-04 08:18:13, last login @ 2013-01-04 08:18:13
  48. 0foamcorn61 registered @ 2013-01-04 08:19:04, last login @ 2013-01-04 08:40:25
  49. 0codkenya52 registered @ 2013-01-04 08:19:50, last login @ 2013-01-04 08:42:16
  50. 0harborrifle82 registered @ 2013-01-04 08:22:17, last login @ 2013-01-04 08:22:17
  51. 0bomberoption4 registered @ 2013-01-04 08:23:05, last login @ 2013-01-04 08:23:05
  52. 0howlr51 registered @ 2013-01-04 08:23:49, last login @ 2013-01-04 08:23:49
  53. 0Flohbrille registered @ 2013-01-04 08:24:36, last login @ 2013-01-04 08:24:36
  54. 0tax9rake registered @ 2013-01-04 08:25:07, last login @ 2013-01-04 08:25:07
  55. 0quillllama4 registered @ 2013-01-04 08:25:35, last login @ 2013-01-04 08:25:35
  56. 0july03frame registered @ 2013-01-04 08:29:27, last login @ 2013-01-04 08:48:17
  57. 0beer55band registered @ 2013-01-04 08:30:50, last login @ 2013-01-04 08:49:17
  58. 0apants6hand registered @ 2013-01-04 08:32:06, last login @ 2013-01-04 08:32:06
  59. 0bottom4hip registered @ 2013-01-04 08:32:39, last login @ 2013-01-04 08:52:50
  60. 0lyrepaint9 registered @ 2013-01-04 08:33:20, last login @ 2013-01-04 08:33:20
  61. 0korean1sweets registered @ 2013-01-04 08:33:39, last login @ 2013-01-04 08:33:39
  62. 0purple8nerve registered @ 2013-01-04 08:36:00, last login @ 2013-01-04 08:36:00
  63. 0fearoffer8 registered @ 2013-01-04 08:38:38, last login @ 2013-01-04 08:38:38
  64. 0beerpush0 registered @ 2013-01-04 08:38:43, last login @ 2013-01-04 08:38:43
  65. 0moatnovel32 registered @ 2013-01-04 08:40:05, last login @ 2013-01-04 08:40:05
  66. 0recordbrain98 registered @ 2013-01-04 08:41:13, last login @ 2013-01-04 08:41:13
  67. 0fall4detail registered @ 2013-01-04 08:43:48, last login @ 2013-01-04 08:43:48
  68. 0auntdew2 registered @ 2013-01-04 08:46:29, last login @ 2013-01-04 08:46:29
  69. 0layer00lathe registered @ 2013-01-04 08:47:16, last login @ 2013-01-04 08:47:16
  70. 0blow06idea registered @ 2013-01-04 08:47:44, last login @ 2013-01-04 08:47:44
  71. 0shield1monkey registered @ 2013-01-04 08:48:24, last login @ 2013-01-04 08:48:24
  72. 0africa0look registered @ 2013-01-04 08:48:27, last login @ 2013-01-04 08:48:27
  73. 0pastry75bath registered @ 2013-01-04 08:48:41, last login @ 2013-01-04 08:48:41
  74. 0cello0kiss registered @ 2013-01-04 08:49:42, last login @ 2013-01-04 08:49:42
  75. 0stemprose95 registered @ 2013-01-04 08:49:47, last login @ 2013-01-04 08:49:47
  76. 0beast3cent registered @ 2013-01-04 08:50:25, last login @ 2013-01-04 08:50:25
  77. 0islandvase94 registered @ 2013-01-04 08:51:34, last login @ 2013-01-04 08:51:34
  78. 0gluebridge56 registered @ 2013-01-04 08:52:29, last login @ 2013-01-04 08:52:29
  79. 0maidbotany0 registered @ 2013-01-04 08:52:53, last login @ 2013-01-04 08:52:53
  80. 0clover37stem registered @ 2013-01-04 08:53:16, last login @ 2013-01-04 08:53:16
  81. 0papersanta53 registered @ 2013-01-04 08:57:20, last login @ 2013-01-04 08:57:20
  82. 0parcelgrain83 registered @ 2013-01-04 08:57:26, last login @ 2013-01-04 08:57:26
  83. 0weaselwolf80 registered @ 2013-01-04 08:57:30, last login @ 2013-01-04 08:57:30
  84. 0cameralamp6 registered @ 2013-01-04 08:59:00, last login @ 2013-01-04 08:59:00
  85. 0agrock registered @ 2013-01-04 08:59:24, last login @ 2013-01-04 08:59:24
  86. 0deskjoseph3 registered @ 2013-01-04 08:59:43, last login @ 2013-01-04 08:59:43
  87. 0jar0delete registered @ 2013-01-04 08:59:47, last login @ 2013-01-04 08:59:47
  88. 0thomas51peace registered @ 2013-01-04 09:01:01, last login @ 2013-01-04 09:01:01
  89. 0nancycalf02 registered @ 2013-01-04 09:01:02, last login @ 2013-01-04 09:01:02
  90. 0jury18day registered @ 2013-01-04 09:01:03, last login @ 2013-01-04 09:01:03
  91. 0wirehumor57 registered @ 2013-01-04 09:01:05, last login @ 2013-01-04 09:01:05
  92. 0farmheart46 registered @ 2013-01-04 09:01:53, last login @ 2013-01-04 09:01:53
  93. 0condorgram25 registered @ 2013-01-04 09:02:35, last login @ 2013-01-04 09:02:35
  94. 0Daddyanton registered @ 2013-01-04 09:02:38, last login @ 2013-01-04 09:02:38
  95. 0gandertrail40 registered @ 2013-01-04 09:02:45, last login @ 2013-01-04 09:02:45
  96. 0leaf61mint registered @ 2013-01-04 09:03:16, last login @ 2013-01-04 09:03:16
  97. 0minesatin3 registered @ 2013-01-04 09:03:21, last login @ 2013-01-04 09:03:21
  98. 0botanyflower2 registered @ 2013-01-04 09:03:24, last login @ 2013-01-04 09:03:24
  99. 0pearpink7 registered @ 2013-01-04 09:03:43, last login @ 2013-01-04 09:03:43
  100. 0sprucegun2 registered @ 2013-01-04 09:03:52, last login @ 2013-01-04 09:03:52
  101. 0market10belt registered @ 2013-01-04 09:07:37, last login @ 2013-01-04 09:07:37

More...

[5245] [5244] [5243] [5242] [5241] [5240] [5239] [5238] [5237] [5236] [5235] [5234] [5233] [5232] [5231] [5230] [5229] [5228] [5227] [5226] ...[1]
Back to Top